createdAt,value
2023-04-08T00:02:01.829Z,97244.28
2023-04-08T00:04:30.322Z,97234.06
2023-04-08T00:06:58.512Z,97239.22
2023-04-08T00:09:26.542Z,97234.22
2023-04-08T00:11:54.694Z,97233.97
2023-04-08T00:14:23.485Z,97231.78
2023-04-08T00:16:51.608Z,97230.88
2023-04-08T00:19:21.706Z,97229.28
2023-04-08T00:21:49.964Z,97226.78
2023-04-08T00:24:18.302Z,97224.00
2023-04-08T00:26:46.909Z,97222.03
2023-04-08T00:29:15.565Z,97231.78
2023-04-08T00:31:44.370Z,97236.09
2023-04-08T00:34:12.879Z,97230.72
2023-04-08T00:36:42.522Z,97237.28
2023-04-08T00:39:11.280Z,97238.94
2023-04-08T00:41:39.840Z,97243.44
2023-04-08T00:44:07.938Z,97239.84
2023-04-08T00:46:40.043Z,97239.22
2023-04-08T00:49:08.892Z,97240.94
2023-04-08T00:51:37.372Z,97242.34
2023-04-08T00:54:07.444Z,97239.13
2023-04-08T00:56:37.402Z,97237.28
2023-04-08T00:59:06.323Z,97239.63
2023-04-08T01:01:44.605Z,97234.72
2023-04-08T01:04:22.454Z,97234.63
2023-04-08T01:06:55.881Z,97231.91
2023-04-08T01:09:31.214Z,97225.16
2023-04-08T01:12:03.146Z,97216.59
2023-04-08T01:14:34.729Z,97226.06
2023-04-08T01:17:03.832Z,97229.41
2023-04-08T01:19:35.720Z,97232.97
2023-04-08T01:22:13.967Z,97229.41
2023-04-08T01:24:46.762Z,97237.13
2023-04-08T01:27:18.212Z,97233.56
2023-04-08T01:29:48.749Z,97237.72
2023-04-08T01:32:17.798Z,97239.47
2023-04-08T01:34:47.091Z,97231.81
2023-04-08T01:37:17.251Z,97231.75
2023-04-08T01:39:47.017Z,97232.50
2023-04-08T01:42:17.157Z,97227.09
2023-04-08T01:44:46.554Z,97229.66
2023-04-08T01:47:16.109Z,97228.94
2023-04-08T01:49:46.752Z,97227.19
2023-04-08T01:52:18.008Z,97226.38
2023-04-08T01:54:46.953Z,97235.00
2023-04-08T01:57:23.769Z,97234.72
2023-04-08T01:59:54.382Z,97232.34
2023-04-08T02:02:26.052Z,97235.75
2023-04-08T02:04:55.133Z,97227.91
2023-04-08T02:07:23.876Z,97231.41
2023-04-08T02:09:52.196Z,97233.00
2023-04-08T02:12:21.600Z,97238.81
2023-04-08T02:15:16.123Z,97236.41
2023-04-08T02:17:47.560Z,97241.63
2023-04-08T02:20:19.937Z,97239.88
2023-04-08T02:22:51.731Z,97229.28
2023-04-08T02:25:25.684Z,97238.59
2023-04-08T02:27:57.337Z,97237.69
2023-04-08T02:30:28.917Z,97235.25
2023-04-08T02:32:59.585Z,97245.56
2023-04-08T02:35:29.550Z,97243.72
2023-04-08T02:37:58.273Z,97243.72
2023-04-08T02:40:28.025Z,97244.56
2023-04-08T02:43:00.046Z,97241.56
2023-04-08T02:45:32.013Z,97241.81
2023-04-08T02:48:02.487Z,97236.66
2023-04-08T02:50:30.875Z,97234.06
2023-04-08T02:52:59.465Z,97247.63
2023-04-08T02:55:27.739Z,97241.66
2023-04-08T02:57:55.987Z,97246.78
2023-04-08T03:00:25.757Z,97245.97
2023-04-08T03:02:54.260Z,97243.31
2023-04-08T03:05:22.831Z,97244.91
2023-04-08T03:07:51.181Z,97246.78
2023-04-08T03:10:19.607Z,97246.78
2023-04-08T03:12:48.005Z,97239.91
2023-04-08T03:15:16.526Z,97238.91
2023-04-08T03:17:46.256Z,97242.31
2023-04-08T03:20:14.696Z,97244.91
2023-04-08T03:22:43.413Z,97240.72
2023-04-08T03:25:12.140Z,97243.22
2023-04-08T03:27:41.001Z,97244.06
2023-04-08T03:30:10.121Z,97243.16
2023-04-08T03:32:38.558Z,97250.72
2023-04-08T03:35:10.207Z,97250.88
2023-04-08T03:37:38.356Z,97242.25
2023-04-08T03:40:08.433Z,97247.16
2023-04-08T03:42:36.746Z,97245.66
2023-04-08T03:45:06.909Z,97238.75
2023-04-08T03:47:35.755Z,97241.34
2023-04-08T03:50:04.537Z,97243.63
2023-04-08T03:52:34.254Z,97243.63
2023-04-08T03:55:02.232Z,97243.63
2023-04-08T03:57:30.734Z,97244.38
2023-04-08T03:59:59.500Z,97245.31
2023-04-08T04:02:28.002Z,97249.31
2023-04-08T04:04:56.725Z,97248.47
2023-04-08T04:07:24.859Z,97263.84
2023-04-08T04:09:57.009Z,97259.53
2023-04-08T04:12:25.204Z,97262.84
2023-04-08T04:14:53.551Z,97263.69
2023-04-08T04:17:22.128Z,97261.03
2023-04-08T04:19:50.545Z,97265.34
2023-04-08T04:22:18.829Z,97275.41
2023-04-08T04:24:49.309Z,97277.66
2023-04-08T04:27:19.098Z,97276.75
2023-04-08T04:29:47.160Z,97279.31
2023-04-08T04:32:15.658Z,97286.69
2023-04-08T04:34:44.629Z,97284.94
2023-04-08T04:37:13.794Z,97295.63
2023-04-08T04:39:42.377Z,97294.88
2023-04-08T04:42:10.505Z,97298.75
2023-04-08T04:44:40.270Z,97304.56
2023-04-08T04:47:08.475Z,97304.22
2023-04-08T04:49:37.041Z,97313.81
2023-04-08T04:52:06.980Z,97313.53
2023-04-08T04:54:35.233Z,97325.94
2023-04-08T04:57:03.316Z,97327.41
2023-04-08T04:59:31.347Z,97328.59
2023-04-08T05:02:01.413Z,97324.81
2023-04-08T05:04:29.789Z,97332.47
2023-04-08T05:07:00.674Z,97338.56
2023-04-08T05:09:30.205Z,97328.06
2023-04-08T05:11:58.541Z,97331.41
2023-04-08T05:14:26.670Z,97332.41
2023-04-08T05:16:55.175Z,97343.78
2023-04-08T05:19:25.047Z,97343.88
2023-04-08T05:21:53.103Z,97349.88
2023-04-08T05:24:21.112Z,97343.88
2023-04-08T05:26:53.460Z,97359.19
2023-04-08T05:29:22.373Z,97362.59
2023-04-08T05:31:50.549Z,97353.63
2023-04-08T05:34:23.379Z,97363.03
2023-04-08T05:36:53.793Z,97364.13
2023-04-08T05:39:22.284Z,97364.94
2023-04-08T05:41:50.706Z,97375.19
2023-04-08T05:44:19.083Z,97376.50
2023-04-08T05:46:47.688Z,97380.13
2023-04-08T05:49:17.352Z,97381.31
2023-04-08T05:51:45.512Z,97378.22
2023-04-08T05:54:15.327Z,97376.28
2023-04-08T05:56:46.663Z,97377.97
2023-04-08T05:59:15.119Z,97378.50
2023-04-08T06:01:43.366Z,97380.63
2023-04-08T06:04:11.654Z,97379.88
2023-04-08T06:06:43.323Z,97384.59
2023-04-08T06:09:11.526Z,97383.94
2023-04-08T06:11:42.089Z,97392.16
2023-04-08T06:14:10.753Z,97393.44
2023-04-08T06:16:39.170Z,97391.41
2023-04-08T06:19:07.570Z,97397.56
2023-04-08T06:21:35.935Z,97403.78
2023-04-08T06:24:04.251Z,97404.75
2023-04-08T06:26:33.532Z,97412.16
2023-04-08T06:29:04.743Z,97417.44
2023-04-08T06:31:33.288Z,97418.97
2023-04-08T06:34:01.958Z,97418.28
2023-04-08T06:36:30.500Z,97416.38
2023-04-08T06:38:58.976Z,97415.28
2023-04-08T06:41:27.743Z,97417.88
2023-04-08T06:44:05.041Z,97419.09
2023-04-08T06:46:33.244Z,97420.19
2023-04-08T06:49:01.615Z,97429.16
2023-04-08T06:51:30.139Z,97428.63
2023-04-08T06:53:58.677Z,97435.44
2023-04-08T06:56:27.325Z,97431.06
2023-04-08T06:58:55.805Z,97435.97
2023-04-08T07:01:25.767Z,97439.56
2023-04-08T07:03:54.105Z,97441.41
2023-04-08T07:06:22.613Z,97444.19
2023-04-08T07:08:51.691Z,97454.00
2023-04-08T07:11:21.253Z,97454.63
2023-04-08T07:13:49.459Z,97462.94
2023-04-08T07:16:17.641Z,97457.50
2023-04-08T07:18:48.381Z,97467.84
2023-04-08T07:21:17.047Z,97460.28
2023-04-08T07:23:45.065Z,97471.50
2023-04-08T07:26:13.919Z,97476.28
2023-04-08T07:28:42.276Z,97479.38
2023-04-08T07:31:14.837Z,97480.94
2023-04-08T07:33:43.226Z,97483.16
2023-04-08T07:36:14.387Z,97486.03
2023-04-08T07:38:43.234Z,97484.25
2023-04-08T07:41:11.325Z,97479.66
2023-04-08T07:43:40.299Z,97483.06
2023-04-08T07:46:09.336Z,97485.41
2023-04-08T07:48:37.614Z,97484.50
2023-04-08T07:51:09.147Z,97498.34
2023-04-08T07:53:42.142Z,97505.84
2023-04-08T07:56:14.951Z,97502.66
2023-04-08T07:58:43.919Z,97513.72
2023-04-08T08:01:20.097Z,97518.22
2023-04-08T08:03:50.176Z,97514.50
2023-04-08T08:06:18.999Z,97514.13
2023-04-08T08:08:48.485Z,97512.94
2023-04-08T08:11:16.830Z,97517.13
2023-04-08T08:13:45.595Z,97523.31
2023-04-08T08:16:14.028Z,97522.56
2023-04-08T08:18:42.393Z,97532.00
2023-04-08T08:21:10.901Z,97536.03
2023-04-08T08:23:39.245Z,97527.16
2023-04-08T08:26:11.166Z,97530.31
2023-04-08T08:28:39.337Z,97537.50
2023-04-08T08:31:08.511Z,97532.72
2023-04-08T08:33:37.448Z,97534.28
2023-04-08T08:36:07.453Z,97534.00
2023-04-08T08:38:35.906Z,97537.00
2023-04-08T08:41:04.705Z,97536.25
2023-04-08T08:43:34.942Z,97533.84
2023-04-08T08:46:04.231Z,97544.63
2023-04-08T08:48:33.244Z,97549.97
2023-04-08T08:51:02.096Z,97552.56
2023-04-08T08:53:35.100Z,97559.13
2023-04-08T08:56:17.983Z,97562.13
2023-04-08T08:58:57.946Z,97559.53
2023-04-08T09:01:38.490Z,97555.47
2023-04-08T09:04:13.136Z,97561.66
2023-04-08T09:06:41.598Z,97571.91
2023-04-08T09:09:11.566Z,97576.06
2023-04-08T09:11:41.769Z,97578.16
2023-04-08T09:14:23.048Z,97582.88
2023-04-08T09:16:52.121Z,97583.03
2023-04-08T09:19:20.819Z,97587.41
2023-04-08T09:22:07.026Z,97583.94
2023-04-08T09:24:35.924Z,97590.41
2023-04-08T09:27:04.555Z,97595.34
2023-04-08T09:29:38.192Z,97595.03
2023-04-08T09:32:07.840Z,97592.47
2023-04-08T09:34:36.894Z,97591.91
2023-04-08T09:37:05.227Z,97598.53
2023-04-08T09:39:33.556Z,97593.19
2023-04-08T09:42:03.991Z,97601.06
2023-04-08T09:44:37.163Z,97598.16
2023-04-08T09:47:11.417Z,97604.75
2023-04-08T09:49:45.567Z,97609.38
2023-04-08T09:52:19.904Z,97608.94
2023-04-08T09:54:54.330Z,97610.28
2023-04-08T09:57:30.523Z,97615.56
2023-04-08T10:00:07.430Z,97619.59
2023-04-08T10:02:58.143Z,97610.16
2023-04-08T10:05:27.930Z,97610.34
2023-04-08T10:07:57.655Z,97617.72
2023-04-08T10:10:27.387Z,97621.50
2023-04-08T10:12:56.390Z,97611.38
2023-04-08T10:15:28.227Z,97619.00
2023-04-08T10:17:58.674Z,97616.56
2023-04-08T10:20:45.459Z,97620.97
2023-04-08T10:23:14.917Z,97618.56
2023-04-08T10:25:45.080Z,97618.22
2023-04-08T10:28:26.506Z,97627.31
2023-04-08T10:30:57.740Z,97626.78
2023-04-08T10:33:33.918Z,97628.47
2023-04-08T10:36:12.682Z,97631.44
2023-04-08T10:38:42.903Z,97642.28
2023-04-08T10:41:12.146Z,97640.78
2023-04-08T10:43:40.497Z,97639.97
2023-04-08T10:46:11.845Z,97638.19
2023-04-08T10:48:40.213Z,97640.69
2023-04-08T10:51:08.359Z,97642.00
2023-04-08T10:53:39.258Z,97639.91
2023-04-08T10:56:09.380Z,97640.16
2023-04-08T10:58:37.851Z,97650.03
2023-04-08T11:01:08.042Z,97647.53
2023-04-08T11:03:38.148Z,97646.28
2023-04-08T11:06:07.664Z,97634.63
2023-04-08T11:08:36.859Z,97634.25
2023-04-08T11:11:09.223Z,97643.19
2023-04-08T11:13:38.738Z,97638.59
2023-04-08T11:16:17.594Z,97640.19
2023-04-08T11:18:48.263Z,97633.94
2023-04-08T11:21:17.794Z,97647.16
2023-04-08T11:23:46.501Z,97652.16
2023-04-08T11:26:16.415Z,97653.16
2023-04-08T11:28:45.775Z,97653.44
2023-04-08T11:31:15.135Z,97650.56
2023-04-08T11:33:51.745Z,97658.47
2023-04-08T11:36:21.756Z,97651.34
2023-04-08T11:38:50.212Z,97656.50
2023-04-08T11:41:18.633Z,97662.09
2023-04-08T11:43:54.778Z,97651.00
2023-04-08T11:46:23.766Z,97660.94
2023-04-08T11:49:07.952Z,97654.88
2023-04-08T11:51:54.620Z,97652.56
2023-04-08T11:54:30.019Z,97651.06
2023-04-08T11:56:59.346Z,97648.50
2023-04-08T11:59:29.553Z,97648.13
2023-04-08T12:01:58.247Z,97642.38
2023-04-08T12:04:27.876Z,97651.00
2023-04-08T12:06:58.353Z,97648.06
2023-04-08T12:09:27.731Z,97642.25
2023-04-08T12:11:56.884Z,97642.94
2023-04-08T12:14:28.416Z,97649.53
2023-04-08T12:16:57.087Z,97649.41
2023-04-08T12:19:25.223Z,97647.00
2023-04-08T12:21:55.577Z,97650.91
2023-04-08T12:24:23.710Z,97657.59
2023-04-08T12:26:51.848Z,97654.94
2023-04-08T12:29:20.204Z,97662.72
2023-04-08T12:31:48.451Z,97658.19
2023-04-08T12:34:17.222Z,97659.16
2023-04-08T12:36:46.275Z,97661.88
2023-04-08T12:39:16.088Z,97660.06
2023-04-08T12:41:44.404Z,97665.22
2023-04-08T12:44:12.817Z,97669.56
2023-04-08T12:46:41.471Z,97660.84
2023-04-08T12:49:10.222Z,97669.22
2023-04-08T12:51:38.699Z,97661.22
2023-04-08T12:54:06.718Z,97673.66
2023-04-08T12:56:36.620Z,97678.19
2023-04-08T12:59:05.178Z,97683.53
2023-04-08T13:01:33.723Z,97681.50
2023-04-08T13:04:02.454Z,97670.31
2023-04-08T13:06:32.045Z,97677.34
2023-04-08T13:09:00.782Z,97682.03
2023-04-08T13:11:29.340Z,97675.72
2023-04-08T13:13:58.871Z,97682.03
2023-04-08T13:16:27.417Z,97680.09
2023-04-08T13:18:55.751Z,97675.50
2023-04-08T13:21:23.860Z,97683.09
2023-04-08T13:23:52.394Z,97684.19
2023-04-08T13:26:21.684Z,97689.28
2023-04-08T13:28:57.234Z,97682.53
2023-04-08T13:31:27.851Z,97697.66
2023-04-08T13:33:58.129Z,97693.72
2023-04-08T13:36:29.197Z,97703.88
2023-04-08T13:38:57.761Z,97704.41
2023-04-08T13:41:28.390Z,97706.63
2023-04-08T13:43:58.254Z,97707.63
2023-04-08T13:46:28.043Z,97704.66
2023-04-08T13:48:56.229Z,97697.69
2023-04-08T13:51:24.300Z,97698.94
2023-04-08T13:53:52.612Z,97693.91
2023-04-08T13:56:21.161Z,97691.22
2023-04-08T13:58:56.785Z,97692.56
2023-04-08T14:01:27.960Z,97692.00
2023-04-08T14:03:57.298Z,97699.19
2023-04-08T14:06:26.731Z,97698.84
2023-04-08T14:08:56.624Z,97694.56
2023-04-08T14:11:24.995Z,97701.25
2023-04-08T14:13:53.149Z,97692.56
2023-04-08T14:16:22.104Z,97695.03
2023-04-08T14:18:53.057Z,97692.91
2023-04-08T14:21:21.415Z,97692.06
2023-04-08T14:23:49.842Z,97697.34
2023-04-08T14:26:18.048Z,97698.84
2023-04-08T14:28:46.357Z,97696.50
2023-04-08T14:31:19.586Z,97708.41
2023-04-08T14:33:48.527Z,97709.34
2023-04-08T14:36:19.196Z,97708.59
2023-04-08T14:38:47.402Z,97710.63
2023-04-08T14:41:15.382Z,97709.16
2023-04-08T14:43:43.582Z,97716.84
2023-04-08T14:46:12.009Z,97715.81
2023-04-08T14:48:40.431Z,97718.72
2023-04-08T14:51:08.795Z,97715.91
2023-04-08T14:53:38.624Z,97725.19
2023-04-08T14:56:08.932Z,97723.06
2023-04-08T14:58:37.140Z,97728.59
2023-04-08T15:01:06.195Z,97731.84
2023-04-08T15:03:34.898Z,97729.81
2023-04-08T15:06:03.684Z,97739.25
2023-04-08T15:08:31.904Z,97729.66
2023-04-08T15:11:01.604Z,97730.03
2023-04-08T15:13:29.769Z,97732.38
2023-04-08T15:15:57.866Z,97738.88
2023-04-08T15:18:26.047Z,97737.22
2023-04-08T15:20:54.361Z,97737.78
2023-04-08T15:23:23.481Z,97735.00
2023-04-08T15:25:52.059Z,97749.53
2023-04-08T15:28:21.764Z,97749.19
2023-04-08T15:30:50.548Z,97750.03
2023-04-08T15:33:19.370Z,97745.19
2023-04-08T15:35:48.483Z,97752.25
2023-04-08T15:38:17.699Z,97749.91
2023-04-08T15:40:47.953Z,97749.59
2023-04-08T15:43:16.762Z,97754.19
2023-04-08T15:45:46.806Z,97758.38
2023-04-08T15:48:15.507Z,97759.28
2023-04-08T15:50:44.205Z,97762.13
2023-04-08T15:53:12.530Z,97767.03
2023-04-08T15:55:41.617Z,97763.56
2023-04-08T15:58:09.938Z,97764.53
2023-04-08T16:00:38.784Z,97764.94
2023-04-08T16:03:12.229Z,97760.94
2023-04-08T16:05:41.732Z,97768.50
2023-04-08T16:08:10.439Z,97766.94
2023-04-08T16:10:38.877Z,97769.88
2023-04-08T16:13:07.910Z,97770.59
2023-04-08T16:15:36.491Z,97777.44
2023-04-08T16:18:06.623Z,97779.28
2023-04-08T16:20:38.863Z,97773.13
2023-04-08T16:23:08.470Z,97781.06
2023-04-08T16:25:37.684Z,97780.63
2023-04-08T16:28:07.055Z,97788.72
2023-04-08T16:30:37.713Z,97791.50
2023-04-08T16:33:08.968Z,97788.09
2023-04-08T16:35:40.682Z,97786.00
2023-04-08T16:38:20.415Z,97792.59
2023-04-08T16:40:50.783Z,97792.69
2023-04-08T16:43:21.761Z,97795.69
2023-04-08T16:45:53.538Z,97795.84
2023-04-08T16:48:23.457Z,97793.78
2023-04-08T16:50:53.385Z,97800.25
2023-04-08T16:53:23.936Z,97797.84
2023-04-08T16:55:54.705Z,97794.06
2023-04-08T16:58:23.456Z,97795.09
2023-04-08T17:00:53.857Z,97799.75
2023-04-08T17:03:23.085Z,97805.13
2023-04-08T17:05:53.853Z,97805.44
2023-04-08T17:08:26.283Z,97809.03
2023-04-08T17:10:56.809Z,97814.38
2023-04-08T17:13:26.375Z,97810.31
2023-04-08T17:15:54.954Z,97814.19
2023-04-08T17:18:23.775Z,97815.19
2023-04-08T17:20:53.762Z,97821.09
2023-04-08T17:23:22.432Z,97828.03
2023-04-08T17:25:51.023Z,97830.22
2023-04-08T17:28:20.140Z,97837.13
2023-04-08T17:30:49.010Z,97838.34
2023-04-08T17:33:17.451Z,97839.66
2023-04-08T17:35:45.710Z,97839.50
2023-04-08T17:38:15.783Z,97842.94
2023-04-08T17:40:44.768Z,97838.22
2023-04-08T17:43:13.772Z,97847.31
2023-04-08T17:45:42.260Z,97844.28
2023-04-08T17:48:11.253Z,97850.41
2023-04-08T17:50:39.654Z,97854.97
2023-04-08T17:53:08.053Z,97855.03
2023-04-08T17:55:37.940Z,97854.63
2023-04-08T17:58:06.720Z,97861.38
2023-04-08T18:00:34.981Z,97867.00
2023-04-08T18:03:03.513Z,97866.28
2023-04-08T18:05:32.201Z,97870.97
2023-04-08T18:08:00.769Z,97867.06
2023-04-08T18:10:29.259Z,97875.38
2023-04-08T18:13:11.323Z,97872.69
2023-04-08T18:15:40.966Z,97876.06
2023-04-08T18:18:09.426Z,97875.81
2023-04-08T18:20:38.929Z,97880.59
2023-04-08T18:23:08.735Z,97880.06
2023-04-08T18:25:37.135Z,97895.69
2023-04-08T18:28:07.171Z,97884.13
2023-04-08T18:30:36.042Z,97891.69
2023-04-08T18:33:05.002Z,97895.31
2023-04-08T18:35:34.705Z,97898.16
2023-04-08T18:38:04.190Z,97904.28
2023-04-08T18:40:32.876Z,97905.88
2023-04-08T18:43:04.682Z,97916.25
2023-04-08T18:45:34.218Z,97912.78
2023-04-08T18:48:02.758Z,97912.66
2023-04-08T18:50:31.228Z,97911.13
2023-04-08T18:52:59.463Z,97920.06
2023-04-08T18:55:28.105Z,97920.91
2023-04-08T18:57:56.382Z,97923.13
2023-04-08T19:00:25.166Z,97921.06
2023-04-08T19:02:55.076Z,97928.16
2023-04-08T19:05:23.398Z,97928.50
2023-04-08T19:07:53.300Z,97925.91
2023-04-08T19:10:23.577Z,97934.03
2023-04-08T19:12:51.984Z,97936.59
2023-04-08T19:15:21.008Z,97941.66
2023-04-08T19:17:50.297Z,97938.97
2023-04-08T19:20:20.699Z,97938.31
2023-04-08T19:22:50.137Z,97938.63
2023-04-08T19:25:18.688Z,97937.63
2023-04-08T19:27:46.925Z,97935.16
2023-04-08T19:30:15.625Z,97921.53
2023-04-08T19:32:44.248Z,97934.53
2023-04-08T19:35:13.777Z,97942.44
2023-04-08T19:37:43.487Z,97938.13
2023-04-08T19:40:15.164Z,97936.41
2023-04-08T19:42:43.502Z,97934.72
2023-04-08T19:45:12.847Z,97941.03
2023-04-08T19:47:42.391Z,97943.78
2023-04-08T19:50:12.031Z,97945.50
2023-04-08T19:52:40.486Z,97946.28
2023-04-08T19:55:11.660Z,97940.31
2023-04-08T19:57:40.689Z,97940.53
2023-04-08T20:00:11.754Z,97941.91
2023-04-08T20:02:44.795Z,97953.81
2023-04-08T20:05:16.552Z,97944.38
2023-04-08T20:07:45.277Z,97948.53
2023-04-08T20:10:15.708Z,97951.28
2023-04-08T20:12:43.961Z,97962.22
2023-04-08T20:15:23.614Z,97975.00
2023-04-08T20:17:53.145Z,97972.38
2023-04-08T20:20:21.639Z,97973.63
2023-04-08T20:22:49.901Z,97974.06
2023-04-08T20:25:19.854Z,97969.16
2023-04-08T20:27:48.360Z,97958.81
2023-04-08T20:30:16.749Z,97958.88
2023-04-08T20:32:45.835Z,97958.88
2023-04-08T20:35:14.489Z,97965.44
2023-04-08T20:37:43.224Z,97976.28
2023-04-08T20:40:11.541Z,97982.47
2023-04-08T20:42:41.720Z,97982.97
2023-04-08T20:45:11.266Z,97981.03
2023-04-08T20:47:41.492Z,97978.81
2023-04-08T20:50:11.239Z,97972.91
2023-04-08T20:52:39.555Z,97978.97
2023-04-08T20:55:16.793Z,97977.97
2023-04-08T20:57:49.662Z,97977.91
2023-04-08T21:00:18.648Z,97983.59
2023-04-08T21:02:48.227Z,97982.81
2023-04-08T21:05:17.041Z,97978.56
2023-04-08T21:07:45.780Z,97985.44
2023-04-08T21:10:14.871Z,97976.84
2023-04-08T21:12:43.571Z,97969.75
2023-04-08T21:15:14.327Z,97960.94
2023-04-08T21:17:42.971Z,97962.50
2023-04-08T21:20:12.963Z,97959.06
2023-04-08T21:22:41.056Z,97970.50
2023-04-08T21:25:09.672Z,97970.25
2023-04-08T21:27:38.307Z,97971.28
2023-04-08T21:30:08.565Z,97969.03
2023-04-08T21:32:38.945Z,97975.50
2023-04-08T21:35:07.252Z,97965.41
2023-04-08T21:37:35.687Z,97965.28
2023-04-08T21:40:04.990Z,97957.75
2023-04-08T21:42:33.676Z,97958.41
2023-04-08T21:45:02.031Z,97955.13
2023-04-08T21:47:30.442Z,97961.94
2023-04-08T21:50:00.269Z,97964.00
2023-04-08T21:52:28.451Z,97963.78
2023-04-08T21:54:56.865Z,97967.13
2023-04-08T21:57:25.385Z,97971.47
2023-04-08T21:59:53.492Z,97971.97
2023-04-08T22:02:22.557Z,97974.16
2023-04-08T22:04:52.170Z,97979.66
2023-04-08T22:07:21.998Z,97973.31
2023-04-08T22:09:50.832Z,97980.47
2023-04-08T22:12:18.956Z,97972.81
2023-04-08T22:14:47.968Z,97968.50
2023-04-08T22:17:16.366Z,97973.97
2023-04-08T22:19:45.398Z,97965.97
2023-04-08T22:22:13.911Z,97971.09
2023-04-08T22:24:43.810Z,97973.69
2023-04-08T22:27:12.395Z,97973.38
2023-04-08T22:29:41.023Z,97969.28
2023-04-08T22:32:09.824Z,97965.97
2023-04-08T22:34:38.019Z,97967.56
2023-04-08T22:37:06.822Z,97969.09
2023-04-08T22:39:35.052Z,97955.63
2023-04-08T22:42:05.825Z,97954.19
2023-04-08T22:44:34.601Z,97948.81
2023-04-08T22:47:03.116Z,97959.16
2023-04-08T22:49:31.931Z,97960.03
2023-04-08T22:52:00.932Z,97957.31
2023-04-08T22:54:29.769Z,97959.06
2023-04-08T22:56:58.201Z,97961.63
2023-04-08T22:59:28.327Z,97954.41
2023-04-08T23:01:57.257Z,97952.78
2023-04-08T23:04:25.693Z,97953.66
2023-04-08T23:06:54.169Z,97963.03
2023-04-08T23:09:24.708Z,97964.63
2023-04-08T23:11:53.691Z,97972.31
2023-04-08T23:14:22.438Z,97962.00
2023-04-08T23:16:52.229Z,97967.00
2023-04-08T23:19:20.857Z,97962.97
2023-04-08T23:21:49.314Z,97960.22
2023-04-08T23:24:17.581Z,97960.25
2023-04-08T23:26:46.073Z,97960.25
2023-04-08T23:29:14.468Z,97964.56
2023-04-08T23:31:42.771Z,97959.44
2023-04-08T23:34:13.009Z,97953.16
2023-04-08T23:36:41.210Z,97958.00
2023-04-08T23:39:09.448Z,97957.63
2023-04-08T23:41:37.671Z,97949.25
2023-04-08T23:44:06.451Z,97950.00
2023-04-08T23:46:34.906Z,97946.50
2023-04-08T23:49:02.935Z,97950.19
2023-04-08T23:51:32.686Z,97956.72
2023-04-08T23:54:00.628Z,97957.56
2023-04-08T23:56:28.969Z,97963.44
2023-04-08T23:58:57.480Z,97960.41
